Time;durP1;ratioP1;P1;durP2;ratioP2;P2;SDS_P1;SDS_P2;PMS_P1;PMS_P2;Temp;Humidity;BMP_temperature;BMP_pressure;BME280_temperature;BME280_humidity;BME280_pressure;Samples;Min_cycle;Max_cycle;Signal;HPM_P1;HPM_P2
2022/10/03 05:39:13;;;;;;;6.83;2.72;;;;;;;10.74;98.21;98987.83;1794375;78;22839;-51
2022/10/03 05:41:40;;;;;;;6.00;3.02;;;;;;;10.73;96.98;98978.27;1736177;80;21070;-52
2022/10/03 05:44:18;;;;;;;4.92;2.27;;;;;;;10.76;97.21;98982.97;1710002;82;21528;-52
2022/10/03 05:46:53;;;;;;;5.25;2.33;;;;;;;10.79;96.59;98989.45;1730394;80;21431;-45
2022/10/03 05:49:52;;;;;;;7.92;2.50;;;;;;;10.81;96.20;98982.88;1683317;83;21504;-43
2022/10/03 05:52:55;;;;;;;5.35;2.52;;;;;;;10.85;96.15;98981.47;1677426;84;21447;-43
2022/10/03 05:55:56;;;;;;;6.97;2.27;;;;;;;10.95;96.26;99015.27;1674133;84;21613;-43
2022/10/03 05:58:39;;;;;;;8.93;2.27;;;;;;;11.03;94.96;98998.97;1690113;84;21559;-52
2022/10/03 06:01:17;;;;;;;3.92;2.22;;;;;;;11.13;94.65;98997.84;1686693;83;21486;-43
2022/10/03 06:03:53;;;;;;;6.00;2.35;;;;;;;11.23;93.63;99015.52;1682833;84;21021;-52
2022/10/03 06:07:14;;;;;;;4.87;2.08;;;;;;;11.35;92.86;99009.55;1678715;84;21056;-52
2022/10/03 06:10:05;;;;;;;4.05;1.95;;;;;;;11.44;91.59;99053.00;1610467;87;21021;-52
2022/10/03 06:12:53;;;;;;;8.73;2.30;;;;;;;11.51;90.81;99018.36;1631079;86;21079;-42
2022/10/03 06:16:02;;;;;;;6.05;2.65;;;;;;;11.58;90.81;99019.47;1641455;86;21104;-43
2022/10/03 06:19:14;;;;;;;7.15;2.30;;;;;;;11.61;89.90;99039.06;1637131;85;21548;-41
2022/10/03 06:22:19;;;;;;;5.92;1.87;;;;;;;11.69;89.63;99024.45;1634600;85;21096;-43
2022/10/03 06:25:23;;;;;;;6.50;2.10;;;;;;;11.80;90.27;99020.27;1637446;85;21032;-51
2022/10/03 06:28:17;;;;;;;3.02;1.52;;;;;;;11.87;87.58;99036.27;1636413;85;21581;-43
2022/10/03 06:31:13;;;;;;;7.87;2.20;;;;;;;11.85;87.68;99044.18;1637419;85;21415;-45
2022/10/03 06:34:17;;;;;;;4.95;1.98;;;;;;;11.82;86.87;99047.31;1638539;85;21595;-44
2022/10/03 06:37:07;;;;;;;6.05;1.92;;;;;;;11.78;86.83;99059.62;1639836;86;21526;-43
2022/10/03 06:40:05;;;;;;;4.40;2.00;;;;;;;11.75;87.06;99066.67;1651733;85;21570;-44
2022/10/03 06:43:10;;;;;;;9.35;2.12;;;;;;;11.76;87.32;99034.33;1646881;85;22186;-43
2022/10/03 06:46:11;;;;;;;4.47;1.75;;;;;;;11.81;87.28;99042.52;1728192;81;21603;-42
2022/10/03 06:49:33;;;;;;;6.97;1.90;;;;;;;11.91;87.38;99046.64;1725269;82;21014;-42
2022/10/03 06:52:32;;;;;;;3.85;2.10;;;;;;;12.04;86.81;99048.50;1724378;82;21623;-43
2022/10/03 06:55:13;;;;;;;7.53;1.77;;;;;;;12.22;86.76;99036.67;1725399;81;20982;-42
2022/10/03 06:58:12;;;;;;;8.28;2.12;;;;;;;12.31;84.96;99054.80;1724761;81;21100;-50
2022/10/03 07:01:03;;;;;;;5.87;1.98;;;;;;;12.33;83.26;99049.05;1675334;83;21094;-51
2022/10/03 07:04:01;;;;;;;11.07;1.80;;;;;;;12.34;82.30;99048.59;1652069;83;21170;-52
2022/10/03 07:06:57;;;;;;;4.35;1.57;;;;;;;12.41;82.92;99052.34;1668510;83;21940;-52
2022/10/03 07:10:01;;;;;;;7.00;2.15;;;;;;;12.49;82.39;99047.73;1601277;88;21477;-53
2022/10/03 07:12:42;;;;;;;4.92;1.95;;;;;;;12.57;81.68;99041.41;1563980;90;21061;-43
2022/10/03 07:15:48;;;;;;;4.85;2.12;;;;;;;12.70;82.10;99046.29;1556675;90;21056;-42
2022/10/03 07:18:44;;;;;;;2.98;1.60;;;;;;;12.84;79.76;99045.02;1561948;90;21595;-43
2022/10/03 07:21:55;;;;;;;4.03;1.90;;;;;;;12.91;78.82;99059.69;1549578;90;21653;-51
2022/10/03 07:24:52;;;;;;;5.85;1.52;;;;;;;12.91;77.95;99070.19;1554844;90;21056;-52
2022/10/03 07:28:05;;;;;;;5.00;2.20;;;;;;;12.91;77.55;99049.19;1555264;90;21095;-52
2022/10/03 07:31:16;;;;;;;2.05;1.25;;;;;;;12.99;77.37;99065.59;1555060;90;21688;-52
2022/10/03 07:34:11;;;;;;;3.10;1.27;;;;;;;13.05;75.80;99054.91;1501110;94;21083;-51
2022/10/03 07:40:14;;;;;;;2.22;1.42;;;;;;;13.27;76.19;99053.36;1506520;93;21067;-51
2022/10/03 07:42:47;;;;;;;5.12;1.50;;;;;;;13.43;73.22;99077.86;1520849;90;21169;-51
2022/10/03 07:45:33;;;;;;;;;;;;;;;13.52;71.98;99070.56;1560315;87;21182;-52
2022/10/03 07:48:37;;;;;;;3.85;1.35;;;;;;;13.59;72.38;99065.97;1619074;87;20120;-43
2022/10/03 07:51:39;;;;;;;4.53;1.30;;;;;;;13.69;72.94;99054.27;1621484;87;21051;-44
2022/10/03 07:54:29;;;;;;;3.17;1.60;;;;;;;13.84;71.80;99052.89;1603792;88;21088;-43
2022/10/03 07:57:15;;;;;;;1.35;0.95;;;;;;;13.83;69.23;99054.66;1589511;87;21682;-42
2022/10/03 08:00:17;;;;;;;2.60;1.60;;;;;;;13.85;70.49;99072.55;1611737;87;21449;-43
2022/10/03 08:03:23;;;;;;;5.67;1.77;;;;;;;13.91;68.89;99066.23;1587320;89;21068;-44
2022/10/03 08:06:44;;;;;;;2.90;1.37;;;;;;;13.86;69.07;99064.23;1602952;88;21758;-43
2022/10/03 08:12:56;;;;;;;5.08;1.42;;;;;;;13.94;68.24;99075.34;1645270;86;21385;-51
2022/10/03 08:16:25;;;;;;;2.15;1.30;;;;;;;13.98;67.58;99074.34;1648635;85;21080;-43
2022/10/03 08:20:12;;;;;;;4.53;1.37;;;;;;;14.07;66.81;99056.06;1650478;86;21054;-42
2022/10/03 08:23:02;;;;;;;5.22;1.30;;;;;;;14.18;66.27;99057.02;1692469;82;20996;-43
2022/10/03 08:25:53;;;;;;;2.60;1.27;;;;;;;14.20;65.85;99075.77;1724410;81;21029;-51
2022/10/03 08:28:49;;;;;;;6.50;1.50;;;;;;;14.21;65.00;99058.25;1726081;82;21060;-41
2022/10/03 08:31:51;;;;;;;3.65;1.07;;;;;;;14.26;65.33;99066.39;1725940;81;21096;-51
2022/10/03 08:34:37;;;;;;;3.42;1.70;;;;;;;14.35;66.27;99079.66;1723805;82;21001;-52
2022/10/03 08:37:10;;;;;;;4.45;1.47;;;;;;;14.52;66.03;99062.01;1722440;81;21906;-43
2022/10/03 08:40:15;;;;;;;4.28;1.60;;;;;;;14.71;63.98;99083.26;1726495;81;21478;-43
2022/10/03 08:50:34;;;;;;;3.58;1.20;;;;;;;14.92;63.06;99068.47;1717984;82;21033;-50
2022/10/03 08:53:13;;;;;;;2.47;1.30;;;;;;;14.83;62.77;99078.40;1718054;82;21064;-42
2022/10/03 08:55:54;;;;;;;1.30;1.00;;;;;;;14.67;61.98;99088.22;1718364;82;21603;-51
2022/10/03 08:59:07;;;;;;;2.90;1.00;;;;;;;14.51;63.19;99070.82;1719218;82;21065;-51
2022/10/03 09:02:03;;;;;;;3.85;1.30;;;;;;;14.37;61.61;99093.16;1697871;82;21420;-51
2022/10/03 09:05:12;;;;;;;3.83;1.25;;;;;;;14.21;61.33;99087.19;1714821;82;21364;-52
2022/10/03 09:08:18;;;;;;;2.42;1.30;;;;;;;14.10;63.28;99073.08;1715841;82;21031;-52
2022/10/03 09:11:08;;;;;;;3.02;1.27;;;;;;;14.09;65.20;99073.53;1719758;82;21544;-52
2022/10/03 09:14:14;;;;;;;3.65;1.30;;;;;;;14.11;66.42;99075.64;1662360;85;21560;-51
2022/10/03 09:17:11;;;;;;;2.83;1.20;;;;;;;14.10;66.48;99087.54;1673573;83;21465;-51
2022/10/03 09:20:10;;;;;;;4.12;1.25;;;;;;;14.14;67.14;99077.30;1672246;83;21388;-51
2022/10/03 09:23:19;;;;;;;1.90;1.10;;;;;;;14.23;66.31;99084.03;1634195;85;21114;-51
2022/10/03 09:26:12;;;;;;;4.05;1.55;;;;;;;14.27;64.92;99075.99;1593158;88;21117;-51
2022/10/03 09:29:06;;;;;;;5.22;1.80;;;;;;;14.29;64.50;99071.52;1631620;86;21009;-51
2022/10/03 09:31:59;;;;;;;2.42;1.25;;;;;;;14.29;64.92;99089.94;1626776;86;21658;-51
2022/10/03 09:35:23;;;;;;;3.87;1.40;;;;;;;14.32;64.74;99091.17;1632965;86;21128;-51
2022/10/03 09:38:35;;;;;;;3.50;1.30;;;;;;;14.36;64.35;99093.22;1630377;85;21092;-42
2022/10/03 09:41:36;;;;;;;3.42;1.50;;;;;;;14.33;64.56;99114.39;1620231;86;21092;-43
2022/10/03 09:44:35;;;;;;;9.35;1.85;;;;;;;14.26;64.80;99091.80;1577065;89;21106;-43
2022/10/03 09:47:42;;;;;;;15.50;1.47;;;;;;;14.22;64.72;99112.11;1552432;91;21463;-43
2022/10/03 09:51:33;;;;;;;3.70;1.50;;;;;;;14.30;64.37;99146.05;1561991;90;21970;-44
2022/10/03 09:55:13;;;;;;;4.72;1.60;;;;;;;14.44;63.82;99099.09;1555996;90;21127;-41
2022/10/03 09:58:24;;;;;;;3.67;1.17;;;;;;;14.62;62.55;99089.27;1593548;87;21445;-42
2022/10/03 10:01:36;;;;;;;2.02;1.00;;;;;;;14.81;61.93;99092.55;1616251;87;21677;-40
2022/10/03 10:05:14;;;;;;;4.97;1.50;;;;;;;15.05;61.54;99088.16;1612609;87;21682;-42
2022/10/03 10:08:33;;;;;;;5.12;1.45;;;;;;;15.53;60.73;99109.59;1617294;87;21433;-42
2022/10/03 10:11:30;;;;;;;7.10;1.65;;;;;;;15.91;58.91;99082.61;1614759;86;21079;-51
2022/10/03 10:14:28;;;;;;;2.52;1.50;;;;;;;16.30;58.33;99083.66;1616302;87;21028;-43
2022/10/03 10:17:27;;;;;;;5.50;1.40;;;;;;;16.72;57.90;99073.90;1609715;87;21486;-51
2022/10/03 10:20:23;;;;;;;3.05;1.20;;;;;;;16.99;56.46;99065.67;1542299;91;21295;-52
2022/10/03 10:23:03;;;;;;;2.65;1.32;;;;;;;17.47;53.69;99060.34;1538387;91;21075;-48
2022/10/03 10:26:04;;;;;;;3.42;1.50;;;;;;;17.65;51.80;99079.30;1542961;90;21107;-53
2022/10/03 10:29:16;;;;;;;3.50;1.40;;;;;;;17.60;50.93;99078.66;1594650;88;21537;-52
2022/10/03 10:32:38;;;;;;;5.10;1.57;;;;;;;17.14;51.70;99079.48;1596921;88;21057;-51
2022/10/03 10:35:59;;;;;;;3.37;1.17;;;;;;;16.87;52.92;99080.30;1596921;88;21669;-51
2022/10/03 10:39:08;;;;;;;2.45;1.35;;;;;;;17.07;51.74;99082.02;1620590;87;21481;-51
2022/10/03 10:42:14;;;;;;;4.08;1.60;;;;;;;17.53;52.84;99073.27;1599943;87;21088;-50
2022/10/03 10:45:09;;;;;;;3.65;1.42;;;;;;;17.86;52.13;99080.09;1592074;88;21133;-50
2022/10/03 10:47:45;;;;;;;2.80;1.50;;;;;;;17.70;51.11;99067.18;1591913;88;20989;-49
2022/10/03 10:50:38;;;;;;;2.37;1.07;;;;;;;17.36;51.91;99088.61;1592856;88;21356;-46
2022/10/03 10:53:43;;;;;;;;;;;;;;;17.13;51.79;99080.89;1598117;88;21032;-46
2022/10/03 10:56:41;;;;;;;3.08;1.20;;;;;;;16.92;54.23;99093.27;1663238;82;20849;-46
2022/10/03 10:59:36;;;;;;;5.97;1.45;;;;;;;16.65;53.59;99079.50;1679581;84;21080;-47
2022/10/03 11:02:11;;;;;;;3.77;1.22;;;;;;;16.26;55.17;99101.86;1650536;84;21036;-38
2022/10/03 11:04:43;;;;;;;3.17;1.70;;;;;;;15.91;56.50;99085.70;1693532;82;21560;-38
2022/10/03 11:08:02;;;;;;;3.90;1.32;;;;;;;15.67;58.30;99095.00;1695930;84;21885;-47
2022/10/03 11:11:02;;;;;;;8.85;1.60;;;;;;;15.47;59.13;99098.83;1690811;84;21029;-47
2022/10/03 11:14:06;;;;;;;4.28;1.77;;;;;;;15.21;61.28;99106.42;1652245;86;21608;-47
2022/10/03 11:16:55;;;;;;;2.65;1.20;;;;;;;15.02;63.22;99102.31;1687092;84;21604;-41
2022/10/03 11:19:52;;;;;;;1.55;0.88;;;;;;;14.82;64.34;99110.92;1639371;86;21053;-47
2022/10/03 11:23:05;;;;;;;5.12;1.00;;;;;;;14.61;65.27;99107.72;1686542;84;20989;-47
2022/10/03 11:26:09;;;;;;;2.25;0.95;;;;;;;14.51;65.98;99115.09;1654381;86;21024;-47
2022/10/03 11:29:00;;;;;;;;;;;;;;;14.53;65.82;99108.45;1685508;84;21061;-39
2022/10/03 11:32:08;;;;;;;1.87;1.00;;;;;;;14.62;66.36;99109.47;1689187;84;20507;-39
2022/10/03 11:35:18;;;;;;;2.70;1.40;;;;;;;14.67;67.81;99097.00;1682180;84;21009;-40
2022/10/03 11:38:20;;;;;;;3.65;1.12;;;;;;;14.75;67.01;99105.94;1683217;84;21048;-40
2022/10/03 11:41:13;;;;;;;2.12;1.30;;;;;;;14.80;67.55;99124.61;1686148;83;21488;-39
2022/10/03 11:44:20;;;;;;;4.83;1.22;;;;;;;14.85;68.46;99116.55;1703797;82;21013;-39
2022/10/03 11:47:30;;;;;;;3.85;1.30;;;;;;;14.92;68.19;99110.59;1688317;84;21484;-47
2022/10/03 11:50:28;;;;;;;1.20;1.10;;;;;;;14.88;67.30;99100.63;1692732;84;21040;-45
2022/10/03 11:53:24;;;;;;;1.15;0.90;;;;;;;14.80;67.17;99104.86;1693415;82;20983;-47
